sensor_id;sensor_type;location;lat;lon;timestamp;P1;durP1;ratioP1;P2;durP2;ratioP2
70975;SDS011;58635;51.198;6.010;2023-04-03T00:00:46;6.38;;;4.00;;
70975;SDS011;58635;51.198;6.010;2023-04-03T00:03:11;7.03;;;3.85;;
70975;SDS011;58635;51.198;6.010;2023-04-03T00:05:37;6.00;;;3.90;;
70975;SDS011;58635;51.198;6.010;2023-04-03T00:08:02;5.72;;;3.58;;
70975;SDS011;58635;51.198;6.010;2023-04-03T00:10:29;5.85;;;3.85;;
70975;SDS011;58635;51.198;6.010;2023-04-03T00:12:55;4.75;;;3.63;;
70975;SDS011;58635;51.198;6.010;2023-04-03T00:15:21;8.85;;;4.35;;
70975;SDS011;58635;51.198;6.010;2023-04-03T00:17:46;6.45;;;3.95;;
70975;SDS011;58635;51.198;6.010;2023-04-03T00:20:11;5.93;;;3.65;;
70975;SDS011;58635;51.198;6.010;2023-04-03T00:22:37;5.85;;;4.20;;
70975;SDS011;58635;51.198;6.010;2023-04-03T00:25:03;7.45;;;4.03;;
70975;SDS011;58635;51.198;6.010;2023-04-03T00:27:29;5.70;;;3.78;;
70975;SDS011;58635;51.198;6.010;2023-04-03T00:29:54;6.40;;;4.32;;
70975;SDS011;58635;51.198;6.010;2023-04-03T00:32:20;6.30;;;4.07;;
70975;SDS011;58635;51.198;6.010;2023-04-03T00:34:45;6.75;;;3.70;;
70975;SDS011;58635;51.198;6.010;2023-04-03T00:37:10;8.00;;;4.30;;
70975;SDS011;58635;51.198;6.010;2023-04-03T00:39:36;6.85;;;3.85;;
70975;SDS011;58635;51.198;6.010;2023-04-03T00:42:01;6.63;;;3.65;;
70975;SDS011;58635;51.198;6.010;2023-04-03T00:46:58;7.63;;;3.90;;
70975;SDS011;58635;51.198;6.010;2023-04-03T00:49:25;7.57;;;3.80;;
70975;SDS011;58635;51.198;6.010;2023-04-03T00:51:51;6.13;;;4.20;;
70975;SDS011;58635;51.198;6.010;2023-04-03T00:54:17;6.10;;;4.07;;
70975;SDS011;58635;51.198;6.010;2023-04-03T01:10:10;7.63;;;4.25;;
70975;SDS011;58635;51.198;6.010;2023-04-03T01:12:40;6.70;;;4.10;;
70975;SDS011;58635;51.198;6.010;2023-04-03T01:15:11;8.10;;;4.03;;
70975;SDS011;58635;51.198;6.010;2023-04-03T01:17:41;5.85;;;4.13;;
70975;SDS011;58635;51.198;6.010;2023-04-03T01:23:06;7.20;;;4.20;;
70975;SDS011;58635;51.198;6.010;2023-04-03T01:25:47;5.18;;;3.78;;
70975;SDS011;58635;51.198;6.010;2023-04-03T01:28:24;6.28;;;4.00;;
70975;SDS011;58635;51.198;6.010;2023-04-03T01:33:45;7.45;;;4.43;;
70975;SDS011;58635;51.198;6.010;2023-04-03T01:36:13;5.50;;;4.03;;
70975;SDS011;58635;51.198;6.010;2023-04-03T01:41:09;6.00;;;4.45;;
70975;SDS011;58635;51.198;6.010;2023-04-03T01:43:35;7.38;;;4.05;;
70975;SDS011;58635;51.198;6.010;2023-04-03T01:46:00;7.13;;;4.70;;
70975;SDS011;58635;51.198;6.010;2023-04-03T01:48:26;7.38;;;4.38;;
70975;SDS011;58635;51.198;6.010;2023-04-03T01:50:51;6.40;;;4.35;;
70975;SDS011;58635;51.198;6.010;2023-04-03T01:53:16;6.80;;;4.40;;
70975;SDS011;58635;51.198;6.010;2023-04-03T01:55:42;5.95;;;4.28;;
70975;SDS011;58635;51.198;6.010;2023-04-03T01:58:07;7.57;;;4.50;;
70975;SDS011;58635;51.198;6.010;2023-04-03T02:00:32;9.13;;;5.03;;
70975;SDS011;58635;51.198;6.010;2023-04-03T02:02:58;6.30;;;4.47;;
70975;SDS011;58635;51.198;6.010;2023-04-03T02:05:24;7.05;;;5.05;;
70975;SDS011;58635;51.198;6.010;2023-04-03T02:07:49;6.07;;;4.60;;
70975;SDS011;58635;51.198;6.010;2023-04-03T02:10:15;6.18;;;4.70;;
70975;SDS011;58635;51.198;6.010;2023-04-03T02:12:41;6.82;;;4.57;;
70975;SDS011;58635;51.198;6.010;2023-04-03T02:15:06;6.60;;;4.55;;
70975;SDS011;58635;51.198;6.010;2023-04-03T02:17:32;6.82;;;4.28;;
70975;SDS011;58635;51.198;6.010;2023-04-03T02:19:57;6.00;;;4.43;;
70975;SDS011;58635;51.198;6.010;2023-04-03T02:22:23;6.60;;;4.35;;
70975;SDS011;58635;51.198;6.010;2023-04-03T02:24:48;7.95;;;4.70;;
70975;SDS011;58635;51.198;6.010;2023-04-03T02:27:14;6.43;;;4.35;;
70975;SDS011;58635;51.198;6.010;2023-04-03T02:29:39;6.40;;;4.45;;
70975;SDS011;58635;51.198;6.010;2023-04-03T02:32:05;8.75;;;4.75;;
70975;SDS011;58635;51.198;6.010;2023-04-03T02:34:30;6.72;;;4.32;;
70975;SDS011;58635;51.198;6.010;2023-04-03T02:36:56;7.97;;;4.35;;
70975;SDS011;58635;51.198;6.010;2023-04-03T02:39:21;7.60;;;4.45;;
70975;SDS011;58635;51.198;6.010;2023-04-03T02:41:47;7.88;;;4.90;;
70975;SDS011;58635;51.198;6.010;2023-04-03T02:44:12;8.55;;;5.10;;
70975;SDS011;58635;51.198;6.010;2023-04-03T02:46:38;8.68;;;4.90;;
70975;SDS011;58635;51.198;6.010;2023-04-03T02:49:03;7.88;;;4.68;;
70975;SDS011;58635;51.198;6.010;2023-04-03T02:51:29;8.45;;;5.32;;
70975;SDS011;58635;51.198;6.010;2023-04-03T02:53:54;8.00;;;5.15;;
70975;SDS011;58635;51.198;6.010;2023-04-03T02:56:19;6.90;;;4.95;;
70975;SDS011;58635;51.198;6.010;2023-04-03T02:58:45;8.07;;;4.85;;
70975;SDS011;58635;51.198;6.010;2023-04-03T03:01:11;7.00;;;4.88;;
70975;SDS011;58635;51.198;6.010;2023-04-03T03:03:38;8.02;;;5.28;;
70975;SDS011;58635;51.198;6.010;2023-04-03T03:06:04;6.65;;;4.85;;
70975;SDS011;58635;51.198;6.010;2023-04-03T03:08:31;8.77;;;5.10;;
70975;SDS011;58635;51.198;6.010;2023-04-03T03:10:57;7.53;;;5.43;;
70975;SDS011;58635;51.198;6.010;2023-04-03T03:13:22;6.28;;;4.53;;
70975;SDS011;58635;51.198;6.010;2023-04-03T03:15:48;7.10;;;4.78;;
70975;SDS011;58635;51.198;6.010;2023-04-03T03:18:13;6.78;;;4.70;;
70975;SDS011;58635;51.198;6.010;2023-04-03T03:20:38;6.57;;;4.55;;
70975;SDS011;58635;51.198;6.010;2023-04-03T03:23:04;8.15;;;4.75;;
70975;SDS011;58635;51.198;6.010;2023-04-03T03:25:29;8.25;;;4.68;;
70975;SDS011;58635;51.198;6.010;2023-04-03T03:27:55;7.15;;;4.78;;
70975;SDS011;58635;51.198;6.010;2023-04-03T03:30:20;10.50;;;5.60;;
70975;SDS011;58635;51.198;6.010;2023-04-03T03:32:45;10.77;;;5.05;;
70975;SDS011;58635;51.198;6.010;2023-04-03T03:35:11;7.13;;;4.95;;
70975;SDS011;58635;51.198;6.010;2023-04-03T03:37:36;8.52;;;5.03;;
70975;SDS011;58635;51.198;6.010;2023-04-03T03:40:02;7.82;;;5.15;;
70975;SDS011;58635;51.198;6.010;2023-04-03T03:42:27;10.23;;;5.10;;
70975;SDS011;58635;51.198;6.010;2023-04-03T03:44:53;8.25;;;5.40;;
70975;SDS011;58635;51.198;6.010;2023-04-03T03:47:18;8.43;;;5.18;;
70975;SDS011;58635;51.198;6.010;2023-04-03T03:49:44;7.65;;;5.15;;
70975;SDS011;58635;51.198;6.010;2023-04-03T03:52:09;7.72;;;5.13;;
70975;SDS011;58635;51.198;6.010;2023-04-03T03:54:36;11.23;;;4.95;;
70975;SDS011;58635;51.198;6.010;2023-04-03T03:57:02;9.18;;;4.70;;
70975;SDS011;58635;51.198;6.010;2023-04-03T03:59:27;9.00;;;4.93;;
70975;SDS011;58635;51.198;6.010;2023-04-03T04:01:52;9.43;;;4.97;;
70975;SDS011;58635;51.198;6.010;2023-04-03T04:04:18;7.85;;;5.03;;
70975;SDS011;58635;51.198;6.010;2023-04-03T04:06:43;8.60;;;4.93;;
70975;SDS011;58635;51.198;6.010;2023-04-03T04:09:09;9.30;;;5.15;;
70975;SDS011;58635;51.198;6.010;2023-04-03T04:11:35;7.70;;;5.10;;
70975;SDS011;58635;51.198;6.010;2023-04-03T04:14:00;9.48;;;4.93;;
70975;SDS011;58635;51.198;6.010;2023-04-03T04:16:26;8.00;;;5.13;;
70975;SDS011;58635;51.198;6.010;2023-04-03T04:18:51;8.48;;;5.18;;
70975;SDS011;58635;51.198;6.010;2023-04-03T04:21:16;9.73;;;5.50;;
70975;SDS011;58635;51.198;6.010;2023-04-03T04:23:42;9.70;;;4.88;;
70975;SDS011;58635;51.198;6.010;2023-04-03T04:26:07;9.38;;;5.25;;
70975;SDS011;58635;51.198;6.010;2023-04-03T04:28:33;11.02;;;5.60;;
70975;SDS011;58635;51.198;6.010;2023-04-03T04:30:58;8.73;;;5.28;;
70975;SDS011;58635;51.198;6.010;2023-04-03T04:33:23;8.55;;;5.25;;
70975;SDS011;58635;51.198;6.010;2023-04-03T04:35:49;8.73;;;5.38;;
70975;SDS011;58635;51.198;6.010;2023-04-03T04:38:15;9.73;;;6.32;;
70975;SDS011;58635;51.198;6.010;2023-04-03T04:40:40;8.60;;;5.40;;
70975;SDS011;58635;51.198;6.010;2023-04-03T04:43:06;7.63;;;4.70;;
70975;SDS011;58635;51.198;6.010;2023-04-03T04:45:31;8.85;;;5.03;;
70975;SDS011;58635;51.198;6.010;2023-04-03T04:47:57;10.27;;;5.45;;
70975;SDS011;58635;51.198;6.010;2023-04-03T04:50:22;8.20;;;4.93;;
70975;SDS011;58635;51.198;6.010;2023-04-03T04:52:48;11.32;;;5.45;;
70975;SDS011;58635;51.198;6.010;2023-04-03T04:55:13;7.43;;;4.63;;
70975;SDS011;58635;51.198;6.010;2023-04-03T04:57:38;9.05;;;4.95;;
70975;SDS011;58635;51.198;6.010;2023-04-03T05:00:04;9.35;;;5.97;;
70975;SDS011;58635;51.198;6.010;2023-04-03T05:02:30;9.43;;;5.18;;
70975;SDS011;58635;51.198;6.010;2023-04-03T05:04:56;9.00;;;5.18;;
70975;SDS011;58635;51.198;6.010;2023-04-03T05:07:21;8.65;;;4.75;;
70975;SDS011;58635;51.198;6.010;2023-04-03T05:09:47;9.80;;;4.97;;
70975;SDS011;58635;51.198;6.010;2023-04-03T05:12:12;7.50;;;4.20;;
70975;SDS011;58635;51.198;6.010;2023-04-03T05:14:38;8.30;;;4.70;;
70975;SDS011;58635;51.198;6.010;2023-04-03T05:17:03;10.77;;;4.70;;
70975;SDS011;58635;51.198;6.010;2023-04-03T05:19:28;8.50;;;4.68;;
70975;SDS011;58635;51.198;6.010;2023-04-03T05:21:54;9.52;;;4.35;;
70975;SDS011;58635;51.198;6.010;2023-04-03T05:24:20;8.95;;;4.20;;
70975;SDS011;58635;51.198;6.010;2023-04-03T05:26:45;9.18;;;4.03;;
70975;SDS011;58635;51.198;6.010;2023-04-03T05:29:10;9.75;;;4.40;;
70975;SDS011;58635;51.198;6.010;2023-04-03T05:31:36;7.22;;;4.03;;
70975;SDS011;58635;51.198;6.010;2023-04-03T05:34:02;10.13;;;4.53;;
70975;SDS011;58635;51.198;6.010;2023-04-03T05:36:28;6.88;;;3.70;;
70975;SDS011;58635;51.198;6.010;2023-04-03T05:38:53;10.63;;;3.90;;
70975;SDS011;58635;51.198;6.010;2023-04-03T05:41:21;9.07;;;3.63;;
70975;SDS011;58635;51.198;6.010;2023-04-03T05:43:47;7.13;;;4.10;;
70975;SDS011;58635;51.198;6.010;2023-04-03T05:46:13;7.43;;;3.22;;
70975;SDS011;58635;51.198;6.010;2023-04-03T05:48:43;9.98;;;3.60;;
70975;SDS011;58635;51.198;6.010;2023-04-03T05:51:13;7.78;;;3.55;;
70975;SDS011;58635;51.198;6.010;2023-04-03T05:53:41;8.23;;;3.53;;
70975;SDS011;58635;51.198;6.010;2023-04-03T05:56:08;7.82;;;3.33;;
70975;SDS011;58635;51.198;6.010;2023-04-03T05:58:34;8.95;;;3.55;;
70975;SDS011;58635;51.198;6.010;2023-04-03T06:00:59;5.78;;;3.30;;
70975;SDS011;58635;51.198;6.010;2023-04-03T06:03:25;8.93;;;3.53;;
70975;SDS011;58635;51.198;6.010;2023-04-03T06:05:51;7.80;;;3.38;;
70975;SDS011;58635;51.198;6.010;2023-04-03T06:08:16;8.05;;;3.58;;
70975;SDS011;58635;51.198;6.010;2023-04-03T06:10:42;8.07;;;3.63;;
70975;SDS011;58635;51.198;6.010;2023-04-03T06:13:07;8.35;;;3.50;;
70975;SDS011;58635;51.198;6.010;2023-04-03T06:15:33;7.50;;;3.35;;
70975;SDS011;58635;51.198;6.010;2023-04-03T06:17:58;8.38;;;3.00;;
70975;SDS011;58635;51.198;6.010;2023-04-03T06:20:24;8.43;;;3.08;;
70975;SDS011;58635;51.198;6.010;2023-04-03T06:22:49;6.28;;;2.85;;
70975;SDS011;58635;51.198;6.010;2023-04-03T06:25:15;7.75;;;2.50;;
70975;SDS011;58635;51.198;6.010;2023-04-03T06:27:42;7.10;;;2.85;;
70975;SDS011;58635;51.198;6.010;2023-04-03T06:30:08;8.55;;;3.20;;
70975;SDS011;58635;51.198;6.010;2023-04-03T06:32:33;8.05;;;2.72;;
70975;SDS011;58635;51.198;6.010;2023-04-03T06:34:58;7.53;;;3.17;;
70975;SDS011;58635;51.198;6.010;2023-04-03T06:37:25;8.55;;;3.22;;
70975;SDS011;58635;51.198;6.010;2023-04-03T06:39:51;8.05;;;2.78;;
70975;SDS011;58635;51.198;6.010;2023-04-03T06:42:17;9.35;;;2.80;;
70975;SDS011;58635;51.198;6.010;2023-04-03T06:44:43;6.88;;;2.92;;
70975;SDS011;58635;51.198;6.010;2023-04-03T06:47:15;7.28;;;2.53;;
70975;SDS011;58635;51.198;6.010;2023-04-03T06:49:41;6.95;;;2.92;;
70975;SDS011;58635;51.198;6.010;2023-04-03T06:52:07;6.68;;;3.42;;
70975;SDS011;58635;51.198;6.010;2023-04-03T06:54:33;9.10;;;3.42;;
70975;SDS011;58635;51.198;6.010;2023-04-03T06:56:59;8.15;;;2.90;;
70975;SDS011;58635;51.198;6.010;2023-04-03T06:59:24;6.80;;;2.90;;
70975;SDS011;58635;51.198;6.010;2023-04-03T07:01:50;5.72;;;2.78;;
70975;SDS011;58635;51.198;6.010;2023-04-03T07:04:16;7.10;;;3.03;;
70975;SDS011;58635;51.198;6.010;2023-04-03T07:06:42;8.27;;;2.88;;
70975;SDS011;58635;51.198;6.010;2023-04-03T07:09:08;6.53;;;2.75;;
70975;SDS011;58635;51.198;6.010;2023-04-03T07:11:34;13.20;;;2.75;;
70975;SDS011;58635;51.198;6.010;2023-04-03T07:14:01;8.25;;;3.00;;
70975;SDS011;58635;51.198;6.010;2023-04-03T07:16:26;9.85;;;4.00;;
70975;SDS011;58635;51.198;6.010;2023-04-03T07:18:52;8.07;;;3.33;;
70975;SDS011;58635;51.198;6.010;2023-04-03T07:21:17;10.60;;;3.00;;
70975;SDS011;58635;51.198;6.010;2023-04-03T07:23:43;5.32;;;2.47;;
70975;SDS011;58635;51.198;6.010;2023-04-03T07:26:08;6.47;;;3.20;;
70975;SDS011;58635;51.198;6.010;2023-04-03T07:28:34;8.27;;;2.83;;
70975;SDS011;58635;51.198;6.010;2023-04-03T07:31:00;4.93;;;2.47;;
70975;SDS011;58635;51.198;6.010;2023-04-03T07:33:32;7.82;;;3.05;;
70975;SDS011;58635;51.198;6.010;2023-04-03T07:35:59;6.60;;;2.63;;
70975;SDS011;58635;51.198;6.010;2023-04-03T07:38:25;7.32;;;2.63;;
70975;SDS011;58635;51.198;6.010;2023-04-03T07:40:51;7.82;;;2.72;;
70975;SDS011;58635;51.198;6.010;2023-04-03T07:43:17;6.57;;;2.80;;
70975;SDS011;58635;51.198;6.010;2023-04-03T07:45:45;9.05;;;3.22;;
70975;SDS011;58635;51.198;6.010;2023-04-03T07:48:12;8.23;;;2.90;;
70975;SDS011;58635;51.198;6.010;2023-04-03T07:50:41;6.97;;;2.60;;
70975;SDS011;58635;51.198;6.010;2023-04-03T07:53:07;7.30;;;3.40;;
70975;SDS011;58635;51.198;6.010;2023-04-03T07:55:32;7.07;;;3.10;;
70975;SDS011;58635;51.198;6.010;2023-04-03T07:57:58;5.53;;;2.72;;
70975;SDS011;58635;51.198;6.010;2023-04-03T08:00:23;7.15;;;2.88;;
70975;SDS011;58635;51.198;6.010;2023-04-03T08:02:49;6.85;;;2.67;;
70975;SDS011;58635;51.198;6.010;2023-04-03T08:05:17;8.05;;;2.80;;
70975;SDS011;58635;51.198;6.010;2023-04-03T08:07:44;6.15;;;2.80;;
70975;SDS011;58635;51.198;6.010;2023-04-03T08:10:09;8.82;;;2.60;;
70975;SDS011;58635;51.198;6.010;2023-04-03T08:12:35;7.65;;;2.50;;
70975;SDS011;58635;51.198;6.010;2023-04-03T08:15:02;6.80;;;2.67;;
70975;SDS011;58635;51.198;6.010;2023-04-03T08:17:28;6.97;;;2.67;;
70975;SDS011;58635;51.198;6.010;2023-04-03T08:19:54;7.25;;;3.00;;
70975;SDS011;58635;51.198;6.010;2023-04-03T08:22:19;6.95;;;3.00;;
70975;SDS011;58635;51.198;6.010;2023-04-03T08:24:44;7.78;;;2.50;;
70975;SDS011;58635;51.198;6.010;2023-04-03T08:27:10;9.30;;;3.30;;
70975;SDS011;58635;51.198;6.010;2023-04-03T08:29:36;7.35;;;3.15;;
70975;SDS011;58635;51.198;6.010;2023-04-03T08:32:03;7.20;;;2.88;;
70975;SDS011;58635;51.198;6.010;2023-04-03T08:34:29;6.35;;;2.67;;
70975;SDS011;58635;51.198;6.010;2023-04-03T08:36:54;8.23;;;2.88;;
70975;SDS011;58635;51.198;6.010;2023-04-03T08:39:20;5.78;;;2.35;;
70975;SDS011;58635;51.198;6.010;2023-04-03T08:41:45;8.23;;;2.85;;
70975;SDS011;58635;51.198;6.010;2023-04-03T08:44:24;6.20;;;2.40;;
70975;SDS011;58635;51.198;6.010;2023-04-03T08:49:47;8.10;;;2.30;;
70975;SDS011;58635;51.198;6.010;2023-04-03T08:52:19;5.93;;;2.10;;
70975;SDS011;58635;51.198;6.010;2023-04-03T09:00:29;8.82;;;2.75;;
70975;SDS011;58635;51.198;6.010;2023-04-03T09:03:04;6.07;;;1.85;;
70975;SDS011;58635;51.198;6.010;2023-04-03T09:08:27;5.53;;;1.95;;
70975;SDS011;58635;51.198;6.010;2023-04-03T09:16:27;3.20;;;1.83;;
70975;SDS011;58635;51.198;6.010;2023-04-03T09:22:19;6.28;;;2.08;;
70975;SDS011;58635;51.198;6.010;2023-04-03T09:27:43;5.32;;;2.05;;
70975;SDS011;58635;51.198;6.010;2023-04-03T09:30:13;6.45;;;2.03;;
70975;SDS011;58635;51.198;6.010;2023-04-03T09:32:40;5.32;;;1.77;;
70975;SDS011;58635;51.198;6.010;2023-04-03T09:37:44;6.32;;;2.00;;
70975;SDS011;58635;51.198;6.010;2023-04-03T09:42:52;3.78;;;1.77;;
70975;SDS011;58635;51.198;6.010;2023-04-03T09:45:24;5.68;;;1.63;;
70975;SDS011;58635;51.198;6.010;2023-04-03T09:48:04;4.88;;;1.73;;
70975;SDS011;58635;51.198;6.010;2023-04-03T09:50:30;6.80;;;2.03;;
70975;SDS011;58635;51.198;6.010;2023-04-03T09:52:55;4.63;;;1.73;;
70975;SDS011;58635;51.198;6.010;2023-04-03T09:55:25;5.70;;;1.70;;
70975;SDS011;58635;51.198;6.010;2023-04-03T09:57:54;4.70;;;1.90;;
70975;SDS011;58635;51.198;6.010;2023-04-03T10:02:54;5.18;;;1.85;;
70975;SDS011;58635;51.198;6.010;2023-04-03T10:05:41;4.13;;;1.45;;
70975;SDS011;58635;51.198;6.010;2023-04-03T10:10:34;3.85;;;1.30;;
70975;SDS011;58635;51.198;6.010;2023-04-03T10:13:07;4.97;;;1.25;;
70975;SDS011;58635;51.198;6.010;2023-04-03T10:15:41;3.38;;;1.20;;
70975;SDS011;58635;51.198;6.010;2023-04-03T10:18:29;4.68;;;1.30;;
70975;SDS011;58635;51.198;6.010;2023-04-03T10:21:13;3.53;;;1.25;;
70975;SDS011;58635;51.198;6.010;2023-04-03T10:23:59;3.28;;;1.23;;
70975;SDS011;58635;51.198;6.010;2023-04-03T10:29:40;2.40;;;0.90;;
70975;SDS011;58635;51.198;6.010;2023-04-03T10:35:16;2.30;;;0.98;;
70975;SDS011;58635;51.198;6.010;2023-04-03T10:46:11;2.60;;;1.10;;
70975;SDS011;58635;51.198;6.010;2023-04-03T10:49:28;3.47;;;1.20;;
70975;SDS011;58635;51.198;6.010;2023-04-03T10:54:25;2.63;;;1.00;;
70975;SDS011;58635;51.198;6.010;2023-04-03T10:57:04;2.45;;;1.20;;
70975;SDS011;58635;51.198;6.010;2023-04-03T11:04:55;4.30;;;1.25;;
70975;SDS011;58635;51.198;6.010;2023-04-03T11:07:26;2.30;;;0.95;;
70975;SDS011;58635;51.198;6.010;2023-04-03T11:10:00;1.58;;;0.90;;
70975;SDS011;58635;51.198;6.010;2023-04-03T11:12:47;3.47;;;1.27;;
70975;SDS011;58635;51.198;6.010;2023-04-03T11:15:17;3.28;;;1.17;;
70975;SDS011;58635;51.198;6.010;2023-04-03T11:17:55;2.92;;;1.02;;
70975;SDS011;58635;51.198;6.010;2023-04-03T11:20:30;3.05;;;1.08;;
70975;SDS011;58635;51.198;6.010;2023-04-03T11:23:06;3.58;;;1.00;;
70975;SDS011;58635;51.198;6.010;2023-04-03T11:25:44;4.00;;;1.15;;
70975;SDS011;58635;51.198;6.010;2023-04-03T11:28:15;2.65;;;0.90;;
70975;SDS011;58635;51.198;6.010;2023-04-03T11:30:54;3.40;;;1.17;;
70975;SDS011;58635;51.198;6.010;2023-04-03T11:33:49;4.07;;;1.40;;
70975;SDS011;58635;51.198;6.010;2023-04-03T11:36:24;3.65;;;1.15;;
70975;SDS011;58635;51.198;6.010;2023-04-03T11:38:53;2.60;;;1.13;;
70975;SDS011;58635;51.198;6.010;2023-04-03T11:41:24;5.88;;;1.30;;
70975;SDS011;58635;51.198;6.010;2023-04-03T11:44:05;2.58;;;1.15;;
70975;SDS011;58635;51.198;6.010;2023-04-03T11:46:51;5.20;;;1.48;;
70975;SDS011;58635;51.198;6.010;2023-04-03T11:49:50;4.00;;;1.20;;
70975;SDS011;58635;51.198;6.010;2023-04-03T11:58:01;4.10;;;1.27;;
70975;SDS011;58635;51.198;6.010;2023-04-03T12:05:54;4.32;;;1.30;;
70975;SDS011;58635;51.198;6.010;2023-04-03T12:16:20;4.80;;;1.50;;
70975;SDS011;58635;51.198;6.010;2023-04-03T12:35:10;5.43;;;1.30;;
70975;SDS011;58635;51.198;6.010;2023-04-03T12:38:01;5.68;;;1.40;;
70975;SDS011;58635;51.198;6.010;2023-04-03T12:44:07;5.40;;;1.40;;
70975;SDS011;58635;51.198;6.010;2023-04-03T12:46:38;5.03;;;1.70;;
70975;SDS011;58635;51.198;6.010;2023-04-03T12:49:18;3.38;;;1.85;;
70975;SDS011;58635;51.198;6.010;2023-04-03T12:51:51;3.25;;;1.40;;
70975;SDS011;58635;51.198;6.010;2023-04-03T12:54:34;3.72;;;1.50;;
70975;SDS011;58635;51.198;6.010;2023-04-03T12:59:52;4.78;;;1.45;;
70975;SDS011;58635;51.198;6.010;2023-04-03T13:02:23;4.10;;;1.42;;
70975;SDS011;58635;51.198;6.010;2023-04-03T13:04:58;2.55;;;1.20;;
70975;SDS011;58635;51.198;6.010;2023-04-03T13:07:32;4.05;;;1.38;;
70975;SDS011;58635;51.198;6.010;2023-04-03T13:12:33;4.20;;;1.80;;
70975;SDS011;58635;51.198;6.010;2023-04-03T13:15:29;5.30;;;1.40;;
70975;SDS011;58635;51.198;6.010;2023-04-03T13:18:04;2.55;;;1.25;;
70975;SDS011;58635;51.198;6.010;2023-04-03T13:20:31;3.45;;;1.40;;
70975;SDS011;58635;51.198;6.010;2023-04-03T13:25:40;2.85;;;1.40;;
70975;SDS011;58635;51.198;6.010;2023-04-03T13:28:10;3.72;;;1.40;;
70975;SDS011;58635;51.198;6.010;2023-04-03T13:30:38;3.90;;;1.63;;
70975;SDS011;58635;51.198;6.010;2023-04-03T13:33:06;3.22;;;1.33;;
70975;SDS011;58635;51.198;6.010;2023-04-03T13:35:45;3.55;;;1.33;;
70975;SDS011;58635;51.198;6.010;2023-04-03T13:43:20;3.58;;;1.60;;
70975;SDS011;58635;51.198;6.010;2023-04-03T13:51:05;3.40;;;1.33;;
70975;SDS011;58635;51.198;6.010;2023-04-03T13:53:44;4.95;;;1.60;;
70975;SDS011;58635;51.198;6.010;2023-04-03T14:01:41;3.22;;;1.55;;
70975;SDS011;58635;51.198;6.010;2023-04-03T14:04:12;5.05;;;1.60;;
70975;SDS011;58635;51.198;6.010;2023-04-03T14:06:37;2.92;;;1.48;;
70975;SDS011;58635;51.198;6.010;2023-04-03T14:09:03;4.13;;;1.60;;
70975;SDS011;58635;51.198;6.010;2023-04-03T14:11:29;2.53;;;1.50;;
70975;SDS011;58635;51.198;6.010;2023-04-03T14:13:56;3.75;;;1.65;;
70975;SDS011;58635;51.198;6.010;2023-04-03T14:16:27;3.28;;;1.60;;
70975;SDS011;58635;51.198;6.010;2023-04-03T14:18:56;3.38;;;1.50;;
70975;SDS011;58635;51.198;6.010;2023-04-03T14:21:21;4.70;;;1.50;;
70975;SDS011;58635;51.198;6.010;2023-04-03T14:23:48;3.45;;;1.35;;
70975;SDS011;58635;51.198;6.010;2023-04-03T14:26:15;3.80;;;1.30;;
70975;SDS011;58635;51.198;6.010;2023-04-03T14:28:44;4.55;;;1.60;;
70975;SDS011;58635;51.198;6.010;2023-04-03T14:31:12;4.57;;;1.50;;
70975;SDS011;58635;51.198;6.010;2023-04-03T14:33:38;3.83;;;1.40;;
70975;SDS011;58635;51.198;6.010;2023-04-03T14:36:37;4.53;;;1.48;;
70975;SDS011;58635;51.198;6.010;2023-04-03T14:38:56;3.78;;;1.27;;
70975;SDS011;58635;51.198;6.010;2023-04-03T14:41:23;3.28;;;1.40;;
70975;SDS011;58635;51.198;6.010;2023-04-03T14:43:50;4.63;;;1.67;;
70975;SDS011;58635;51.198;6.010;2023-04-03T14:46:17;5.10;;;1.50;;
70975;SDS011;58635;51.198;6.010;2023-04-03T14:48:54;4.03;;;1.40;;
70975;SDS011;58635;51.198;6.010;2023-04-03T14:51:19;5.72;;;1.83;;
70975;SDS011;58635;51.198;6.010;2023-04-03T14:53:45;6.47;;;1.65;;
70975;SDS011;58635;51.198;6.010;2023-04-03T14:56:16;3.42;;;1.60;;
70975;SDS011;58635;51.198;6.010;2023-04-03T14:58:47;6.45;;;2.08;;
70975;SDS011;58635;51.198;6.010;2023-04-03T15:01:15;2.92;;;1.23;;
70975;SDS011;58635;51.198;6.010;2023-04-03T15:03:42;4.03;;;1.52;;
70975;SDS011;58635;51.198;6.010;2023-04-03T15:06:09;6.45;;;1.50;;
70975;SDS011;58635;51.198;6.010;2023-04-03T15:08:36;3.13;;;1.33;;
70975;SDS011;58635;51.198;6.010;2023-04-03T15:11:02;5.55;;;2.00;;
70975;SDS011;58635;51.198;6.010;2023-04-03T15:13:28;3.28;;;1.60;;
70975;SDS011;58635;51.198;6.010;2023-04-03T15:15:53;4.78;;;1.90;;
70975;SDS011;58635;51.198;6.010;2023-04-03T15:18:22;3.40;;;1.45;;
70975;SDS011;58635;51.198;6.010;2023-04-03T15:20:51;5.13;;;2.27;;
70975;SDS011;58635;51.198;6.010;2023-04-03T15:23:18;5.38;;;2.80;;
70975;SDS011;58635;51.198;6.010;2023-04-03T15:25:44;3.75;;;1.60;;
70975;SDS011;58635;51.198;6.010;2023-04-03T15:28:18;4.07;;;1.40;;
70975;SDS011;58635;51.198;6.010;2023-04-03T15:30:51;3.33;;;1.45;;
70975;SDS011;58635;51.198;6.010;2023-04-03T15:33:17;6.88;;;1.63;;
70975;SDS011;58635;51.198;6.010;2023-04-03T15:35:42;6.35;;;1.70;;
70975;SDS011;58635;51.198;6.010;2023-04-03T15:38:08;4.03;;;1.63;;
70975;SDS011;58635;51.198;6.010;2023-04-03T15:40:35;4.40;;;1.75;;
70975;SDS011;58635;51.198;6.010;2023-04-03T15:43:00;6.22;;;1.70;;
70975;SDS011;58635;51.198;6.010;2023-04-03T15:45:28;4.65;;;1.52;;
70975;SDS011;58635;51.198;6.010;2023-04-03T15:47:55;5.20;;;2.10;;
70975;SDS011;58635;51.198;6.010;2023-04-03T15:50:20;5.43;;;1.90;;
70975;SDS011;58635;51.198;6.010;2023-04-03T15:52:47;5.70;;;1.80;;
70975;SDS011;58635;51.198;6.010;2023-04-03T15:55:13;5.38;;;2.03;;
70975;SDS011;58635;51.198;6.010;2023-04-03T15:57:38;5.55;;;1.50;;
70975;SDS011;58635;51.198;6.010;2023-04-03T16:00:04;4.32;;;1.48;;
70975;SDS011;58635;51.198;6.010;2023-04-03T16:02:31;5.65;;;1.63;;
70975;SDS011;58635;51.198;6.010;2023-04-03T16:04:58;4.78;;;1.48;;
70975;SDS011;58635;51.198;6.010;2023-04-03T16:07:23;3.45;;;1.42;;
70975;SDS011;58635;51.198;6.010;2023-04-03T16:09:49;4.30;;;1.55;;
70975;SDS011;58635;51.198;6.010;2023-04-03T16:12:14;3.53;;;1.58;;
70975;SDS011;58635;51.198;6.010;2023-04-03T16:14:40;4.43;;;1.40;;
70975;SDS011;58635;51.198;6.010;2023-04-03T16:17:05;4.82;;;1.30;;
70975;SDS011;58635;51.198;6.010;2023-04-03T16:19:31;2.70;;;1.10;;
70975;SDS011;58635;51.198;6.010;2023-04-03T16:21:56;4.00;;;1.40;;
70975;SDS011;58635;51.198;6.010;2023-04-03T16:24:22;4.45;;;1.48;;
70975;SDS011;58635;51.198;6.010;2023-04-03T16:26:48;3.65;;;1.67;;
70975;SDS011;58635;51.198;6.010;2023-04-03T16:29:13;4.32;;;1.50;;
70975;SDS011;58635;51.198;6.010;2023-04-03T16:31:39;4.20;;;1.38;;
70975;SDS011;58635;51.198;6.010;2023-04-03T16:34:04;2.20;;;1.20;;
70975;SDS011;58635;51.198;6.010;2023-04-03T16:36:30;2.67;;;1.20;;
70975;SDS011;58635;51.198;6.010;2023-04-03T16:38:56;3.60;;;1.40;;
70975;SDS011;58635;51.198;6.010;2023-04-03T16:41:21;5.05;;;1.50;;
70975;SDS011;58635;51.198;6.010;2023-04-03T16:43:47;3.13;;;1.33;;
70975;SDS011;58635;51.198;6.010;2023-04-03T16:46:12;5.72;;;1.42;;
70975;SDS011;58635;51.198;6.010;2023-04-03T16:48:38;3.53;;;1.23;;
70975;SDS011;58635;51.198;6.010;2023-04-03T16:51:03;5.60;;;1.60;;
70975;SDS011;58635;51.198;6.010;2023-04-03T16:53:29;4.43;;;1.40;;
70975;SDS011;58635;51.198;6.010;2023-04-03T16:55:56;7.72;;;1.30;;
70975;SDS011;58635;51.198;6.010;2023-04-03T16:58:22;5.82;;;1.55;;
70975;SDS011;58635;51.198;6.010;2023-04-03T17:00:48;3.67;;;1.10;;
70975;SDS011;58635;51.198;6.010;2023-04-03T17:03:13;3.92;;;1.33;;
70975;SDS011;58635;51.198;6.010;2023-04-03T17:05:39;4.82;;;1.38;;
70975;SDS011;58635;51.198;6.010;2023-04-03T17:08:05;3.92;;;1.52;;
70975;SDS011;58635;51.198;6.010;2023-04-03T17:10:30;3.78;;;1.40;;
70975;SDS011;58635;51.198;6.010;2023-04-03T17:12:56;6.43;;;2.13;;
70975;SDS011;58635;51.198;6.010;2023-04-03T17:15:21;4.53;;;1.48;;